Time;durP1;ratioP1;P1;durP2;ratioP2;P2;SDS_P1;SDS_P2;PMS_P1;PMS_P2;Temp;Humidity;BMP_temperature;BMP_pressure;BME280_temperature;BME280_humidity;BME280_pressure;Samples;Min_cycle;Max_cycle;Signal;HPM_P1;HPM_P2
2022/03/29 00:01:44;;;;;;;9.30;4.55;;;19.00;99.90;;;;;;4243419;27;20262;-76
2022/03/29 00:03:46;;;;;;;8.18;5.10;;;19.00;99.90;;;;;;4243166;27;20265;-76
2022/03/29 00:05:50;;;;;;;7.70;5.38;;;19.00;99.90;;;;;;4241504;27;20221;-76
2022/03/29 00:07:52;;;;;;;8.57;4.93;;;19.00;99.90;;;;;;4241598;27;20212;-76
2022/03/29 00:09:54;;;;;;;8.32;5.85;;;19.00;99.90;;;;;;4242694;27;20233;-76
2022/03/29 00:11:57;;;;;;;8.07;5.68;;;19.00;99.90;;;;;;4242937;27;20217;-76
2022/03/29 00:14:02;;;;;;;8.07;5.68;;;19.00;99.90;;;;;;4241699;27;20261;-76
2022/03/29 00:16:05;;;;;;;6.22;4.82;;;19.00;99.90;;;;;;4243073;27;20266;-76
2022/03/29 00:18:07;;;;;;;8.23;5.63;;;19.00;99.90;;;;;;4242852;27;20709;-76
2022/03/29 00:20:10;;;;;;;8.40;5.25;;;19.00;99.90;;;;;;4241564;27;20836;-75
2022/03/29 00:22:14;;;;;;;6.32;5.13;;;19.00;99.90;;;;;;4242285;27;20262;-76
2022/03/29 00:24:16;;;;;;;9.40;5.97;;;18.90;99.90;;;;;;4241285;27;20623;-76
2022/03/29 00:26:19;;;;;;;8.07;5.07;;;18.90;99.90;;;;;;4242449;27;20270;-76
2022/03/29 00:28:21;;;;;;;7.85;5.38;;;18.90;99.90;;;;;;4241546;27;20262;-76
2022/03/29 00:30:23;;;;;;;8.60;6.28;;;18.90;99.90;;;;;;4242527;27;20240;-76
2022/03/29 00:32:26;;;;;;;8.27;5.70;;;18.90;99.90;;;;;;4242544;27;20224;-76
2022/03/29 00:34:28;;;;;;;7.78;5.80;;;18.90;99.90;;;;;;4242985;27;20613;-76
2022/03/29 00:36:31;;;;;;;8.68;5.32;;;18.90;99.90;;;;;;4242620;27;20258;-76
2022/03/29 00:38:35;;;;;;;10.23;5.63;;;18.90;99.90;;;;;;4242511;27;20213;-76
2022/03/29 00:40:37;;;;;;;8.85;5.35;;;18.90;99.90;;;;;;4242110;27;20667;-76
2022/03/29 00:42:40;;;;;;;7.25;5.38;;;18.90;99.90;;;;;;4241879;27;20213;-75
2022/03/29 00:44:43;;;;;;;9.07;5.03;;;18.90;99.90;;;;;;4242430;27;20649;-76
2022/03/29 00:46:47;;;;;;;7.28;5.93;;;18.90;99.90;;;;;;4242989;27;20289;-76
2022/03/29 00:48:49;;;;;;;6.80;5.28;;;18.90;99.90;;;;;;4242795;27;20653;-76
2022/03/29 00:50:54;;;;;;;7.80;5.35;;;18.90;99.90;;;;;;4242635;27;20237;-76
2022/03/29 00:52:56;;;;;;;7.60;5.50;;;18.90;99.90;;;;;;4242785;27;20258;-76
2022/03/29 00:55:01;;;;;;;7.43;5.57;;;18.90;99.90;;;;;;4242662;27;20217;-76
2022/03/29 00:57:05;;;;;;;9.15;5.50;;;18.90;99.90;;;;;;4238431;27;20277;-76
2022/03/29 00:59:08;;;;;;;7.60;5.57;;;18.90;99.90;;;;;;4241119;27;20289;-75
2022/03/29 01:01:11;;;;;;;9.15;5.70;;;18.90;99.90;;;;;;4242640;27;20201;-76
2022/03/29 01:03:15;;;;;;;8.82;6.18;;;18.90;99.90;;;;;;4242464;27;20270;-76
2022/03/29 01:05:18;;;;;;;8.10;5.93;;;18.90;99.90;;;;;;4241583;27;20820;-75
2022/03/29 01:07:20;;;;;;;8.43;6.13;;;18.90;99.90;;;;;;4242824;27;20719;-76
2022/03/29 01:09:22;;;;;;;9.95;5.68;;;18.90;99.90;;;;;;4241978;27;20213;-75
2022/03/29 01:11:27;;;;;;;8.00;5.75;;;18.90;99.90;;;;;;4241697;27;20213;-77
2022/03/29 01:13:29;;;;;;;8.57;6.13;;;18.90;99.90;;;;;;4240881;27;20216;-76
2022/03/29 01:15:36;;;;;;;11.68;6.03;;;18.90;99.90;;;;;;4240913;28;20213;-76
2022/03/29 01:17:42;;;;;;;7.47;5.50;;;18.90;99.90;;;;;;4242047;28;20325;-76
2022/03/29 01:19:46;;;;;;;8.32;5.82;;;18.90;99.90;;;;;;4240955;28;20209;-76
2022/03/29 01:21:56;;;;;;;8.55;5.68;;;18.80;99.90;;;;;;4242527;28;20622;-76
2022/03/29 01:23:59;;;;;;;8.43;5.97;;;18.80;99.90;;;;;;4242562;28;20313;-76
2022/03/29 01:26:01;;;;;;;8.48;6.18;;;18.80;99.90;;;;;;4242377;28;20216;-76
2022/03/29 01:28:05;;;;;;;10.38;6.43;;;18.80;99.90;;;;;;4242436;28;20213;-76
2022/03/29 01:30:09;;;;;;;9.27;6.00;;;18.80;99.90;;;;;;4241212;28;20302;-76
2022/03/29 01:32:12;;;;;;;8.30;6.20;;;18.80;99.90;;;;;;4239501;28;20674;-76
2022/03/29 01:34:14;;;;;;;9.32;5.80;;;18.80;99.90;;;;;;4242106;28;20270;-76
2022/03/29 01:36:17;;;;;;;7.57;5.25;;;18.80;99.90;;;;;;4241966;28;20312;-76
2022/03/29 01:38:20;;;;;;;8.60;5.45;;;18.80;99.90;;;;;;4241594;28;20217;-76
2022/03/29 01:40:24;;;;;;;9.02;6.13;;;18.80;99.90;;;;;;4242045;28;20258;-76
2022/03/29 01:42:27;;;;;;;10.50;6.47;;;18.80;99.90;;;;;;4239530;28;20205;-76
2022/03/29 01:44:29;;;;;;;10.45;5.88;;;18.80;99.90;;;;;;4242062;28;20262;-76
2022/03/29 01:46:31;;;;;;;8.35;5.65;;;18.80;99.90;;;;;;4242075;28;20221;-76
2022/03/29 01:48:34;;;;;;;6.70;5.60;;;18.80;99.90;;;;;;4240690;28;20265;-75
2022/03/29 01:50:36;;;;;;;8.85;5.55;;;18.80;99.90;;;;;;4241119;28;20262;-76
2022/03/29 01:52:40;;;;;;;9.90;6.40;;;18.80;99.90;;;;;;4242470;28;20246;-76
2022/03/29 01:54:44;;;;;;;12.27;6.68;;;18.80;99.90;;;;;;4241690;28;21552;-76
2022/03/29 01:56:46;;;;;;;8.20;5.88;;;18.80;99.90;;;;;;4242108;28;20213;-76
2022/03/29 01:58:49;;;;;;;7.68;6.00;;;18.80;99.90;;;;;;4242616;28;20734;-76
2022/03/29 02:00:50;;;;;;;8.20;6.10;;;18.80;99.90;;;;;;4242102;28;20213;-76
2022/03/29 02:02:53;;;;;;;9.63;6.10;;;18.80;99.90;;;;;;4242117;28;20935;-76
2022/03/29 02:04:55;;;;;;;9.52;6.70;;;18.80;99.90;;;;;;4241161;28;20213;-75
2022/03/29 02:07:01;;;;;;;9.13;6.22;;;18.80;99.90;;;;;;4241742;28;20262;-75
2022/03/29 02:09:06;;;;;;;9.23;6.28;;;18.80;99.90;;;;;;4241960;28;20911;-76
2022/03/29 02:11:10;;;;;;;7.97;6.40;;;18.80;99.90;;;;;;4242040;28;20233;-75
2022/03/29 02:13:12;;;;;;;10.18;6.85;;;18.80;99.90;;;;;;4242000;28;20220;-76
2022/03/29 02:15:15;;;;;;;11.07;6.82;;;18.80;99.90;;;;;;4240852;27;20258;-76
2022/03/29 02:17:17;;;;;;;7.63;5.78;;;18.80;99.90;;;;;;4243320;27;20214;-75
2022/03/29 02:19:19;;;;;;;9.20;6.15;;;18.80;99.90;;;;;;4245280;27;20661;-76
2022/03/29 02:21:22;;;;;;;9.63;6.03;;;18.70;99.90;;;;;;4243622;27;21715;-76
2022/03/29 02:23:24;;;;;;;8.40;6.00;;;18.80;99.90;;;;;;4242820;27;20213;-76
2022/03/29 02:25:26;;;;;;;9.55;5.47;;;18.80;99.90;;;;;;4244941;27;20744;-76
2022/03/29 02:27:30;;;;;;;7.35;5.72;;;18.70;99.90;;;;;;4244736;27;20718;-76
2022/03/29 02:29:33;;;;;;;8.43;6.30;;;18.70;99.90;;;;;;4244642;27;20670;-76
2022/03/29 02:31:35;;;;;;;7.50;5.50;;;18.80;99.90;;;;;;4243207;27;20274;-76
2022/03/29 02:33:38;;;;;;;7.40;5.88;;;18.80;99.90;;;;;;4244963;27;20256;-76
2022/03/29 02:35:40;;;;;;;9.68;6.10;;;18.70;99.90;;;;;;4244721;27;20209;-75
2022/03/29 02:37:42;;;;;;;9.45;6.20;;;18.80;99.90;;;;;;4245308;27;20213;-76
2022/03/29 02:39:45;;;;;;;9.35;5.80;;;18.70;99.90;;;;;;4242958;27;20251;-76
2022/03/29 02:41:47;;;;;;;6.97;5.80;;;18.70;99.90;;;;;;4245092;27;20266;-76
2022/03/29 02:43:51;;;;;;;9.10;6.10;;;18.70;99.90;;;;;;4250102;27;20607;-76
2022/03/29 02:45:53;;;;;;;9.85;6.07;;;18.70;99.90;;;;;;4245112;27;20306;-75
2022/03/29 02:47:58;;;;;;;9.30;6.00;;;18.70;99.90;;;;;;4244829;27;20694;-76
2022/03/29 02:50:00;;;;;;;8.38;5.78;;;18.70;99.90;;;;;;4244267;27;20213;-76
2022/03/29 02:52:04;;;;;;;9.15;6.15;;;18.70;99.90;;;;;;4243883;27;20237;-76
2022/03/29 02:54:06;;;;;;;8.45;6.10;;;18.70;99.90;;;;;;4243911;27;20274;-76
2022/03/29 02:56:08;;;;;;;7.75;5.57;;;18.70;99.90;;;;;;4241426;27;20239;-76
2022/03/29 02:58:12;;;;;;;7.30;5.80;;;18.70;99.90;;;;;;4241455;27;20247;-76
2022/03/29 03:00:17;;;;;;;9.18;5.95;;;18.70;99.90;;;;;;4243556;27;20540;-76
2022/03/29 03:02:19;;;;;;;10.10;5.97;;;18.70;99.90;;;;;;4243473;27;21469;-76
2022/03/29 03:04:22;;;;;;;8.73;5.85;;;18.70;99.90;;;;;;4244022;27;20242;-76
2022/03/29 03:06:24;;;;;;;9.60;5.97;;;18.70;99.90;;;;;;4244078;27;20258;-76
2022/03/29 03:08:27;;;;;;;8.10;5.90;;;18.70;99.90;;;;;;4244031;27;20209;-76
2022/03/29 03:10:30;;;;;;;8.43;5.68;;;18.70;99.90;;;;;;4243450;27;20589;-76
2022/03/29 03:12:35;;;;;;;8.50;6.50;;;18.60;99.90;;;;;;4242117;27;20210;-76
2022/03/29 03:14:38;;;;;;;9.75;6.22;;;18.60;99.90;;;;;;4242783;27;20209;-76
2022/03/29 03:16:41;;;;;;;8.25;5.80;;;18.70;99.90;;;;;;4243322;27;20209;-75
2022/03/29 03:18:43;;;;;;;10.43;5.97;;;18.60;99.90;;;;;;4243145;27;20217;-75
2022/03/29 03:20:46;;;;;;;8.68;5.68;;;18.60;99.90;;;;;;4243940;27;20220;-76
2022/03/29 03:22:48;;;;;;;9.45;6.47;;;18.70;99.90;;;;;;4243608;27;20729;-76
2022/03/29 03:24:51;;;;;;;8.50;6.45;;;18.70;99.90;;;;;;4243681;27;20209;-75
2022/03/29 03:26:53;;;;;;;8.43;6.03;;;18.60;99.90;;;;;;4243098;27;20305;-76
2022/03/29 03:28:56;;;;;;;9.93;6.32;;;18.60;99.90;;;;;;4241782;27;20359;-75
2022/03/29 03:30:58;;;;;;;9.60;6.00;;;18.60;99.90;;;;;;4240780;27;20286;-76
2022/03/29 03:33:02;;;;;;;8.10;5.60;;;18.60;99.90;;;;;;4243688;27;20966;-76
2022/03/29 03:35:05;;;;;;;8.02;6.05;;;18.60;99.90;;;;;;4243836;27;20256;-76
2022/03/29 03:37:08;;;;;;;8.95;5.70;;;18.60;99.90;;;;;;4242167;27;20258;-76
2022/03/29 03:39:10;;;;;;;8.82;6.03;;;18.60;99.90;;;;;;4243530;27;20656;-76
2022/03/29 03:41:12;;;;;;;9.63;6.45;;;18.60;99.90;;;;;;4243037;27;20205;-76
2022/03/29 03:43:15;;;;;;;8.10;5.90;;;18.60;99.90;;;;;;4242983;27;20301;-76
2022/03/29 03:45:17;;;;;;;9.73;5.68;;;18.60;99.90;;;;;;4241923;27;20269;-76
2022/03/29 03:47:19;;;;;;;8.27;5.60;;;18.60;99.90;;;;;;4242477;27;20217;-76
2022/03/29 03:49:23;;;;;;;9.27;6.05;;;18.60;99.90;;;;;;4241464;27;20258;-75
2022/03/29 03:51:25;;;;;;;7.53;5.93;;;18.60;99.90;;;;;;4242854;27;20237;-75
2022/03/29 03:53:29;;;;;;;10.10;5.60;;;18.60;99.90;;;;;;4243275;27;20217;-75
2022/03/29 03:55:31;;;;;;;10.32;6.32;;;18.60;99.90;;;;;;4243382;27;20218;-75
2022/03/29 03:57:34;;;;;;;9.35;6.32;;;18.60;99.90;;;;;;4243278;27;20213;-75
2022/03/29 03:59:36;;;;;;;9.88;5.50;;;18.60;99.90;;;;;;4243367;27;20209;-75
2022/03/29 04:01:38;;;;;;;9.30;6.25;;;18.60;99.90;;;;;;4242858;27;20668;-75
2022/03/29 04:03:40;;;;;;;10.38;6.22;;;18.60;99.90;;;;;;4241384;27;20262;-75
2022/03/29 04:05:44;;;;;;;8.65;5.47;;;18.60;99.90;;;;;;4240476;27;20242;-75
2022/03/29 04:07:46;;;;;;;7.68;5.35;;;18.60;99.90;;;;;;4242567;27;20346;-75
2022/03/29 04:09:49;;;;;;;7.20;5.38;;;18.60;99.90;;;;;;4242660;27;20216;-75
2022/03/29 04:11:51;;;;;;;8.63;5.90;;;18.60;99.90;;;;;;4242218;27;20274;-75
2022/03/29 04:13:54;;;;;;;8.13;5.85;;;18.60;99.90;;;;;;4242281;27;20306;-75
2022/03/29 04:15:56;;;;;;;7.70;5.55;;;18.60;99.90;;;;;;4241947;27;20220;-75
2022/03/29 04:18:00;;;;;;;10.60;6.25;;;18.60;99.90;;;;;;4241935;27;20221;-75
2022/03/29 04:20:03;;;;;;;7.85;5.88;;;18.60;99.90;;;;;;4242464;27;20265;-75
2022/03/29 04:22:07;;;;;;;10.32;5.93;;;18.60;99.90;;;;;;4240477;27;20210;-75
2022/03/29 04:24:09;;;;;;;6.47;5.18;;;18.50;99.90;;;;;;4242439;27;20213;-75
2022/03/29 04:26:11;;;;;;;7.95;5.47;;;18.50;99.90;;;;;;4242568;27;20265;-75
2022/03/29 04:28:14;;;;;;;8.05;5.97;;;18.50;99.90;;;;;;4242144;27;20213;-75
2022/03/29 04:30:16;;;;;;;9.57;5.85;;;18.50;99.90;;;;;;4242525;27;20722;-75
2022/03/29 04:32:19;;;;;;;9.07;5.65;;;18.60;99.90;;;;;;4242324;27;20237;-75
2022/03/29 04:34:21;;;;;;;8.75;5.68;;;18.50;99.90;;;;;;4242365;27;20217;-75
2022/03/29 04:36:24;;;;;;;10.73;5.85;;;18.60;99.90;;;;;;4242879;27;20217;-75
2022/03/29 04:38:28;;;;;;;7.63;5.65;;;18.50;99.90;;;;;;4241253;27;20214;-75
2022/03/29 04:40:30;;;;;;;8.52;6.22;;;18.50;99.90;;;;;;4241817;27;20556;-75
2022/03/29 04:42:34;;;;;;;9.00;5.97;;;18.50;99.80;;;;;;4241666;27;20238;-75
2022/03/29 04:44:37;;;;;;;8.20;5.30;;;18.50;99.90;;;;;;4241623;27;20668;-75
2022/03/29 04:46:39;;;;;;;8.90;5.80;;;18.50;99.80;;;;;;4240913;27;20607;-76
2022/03/29 04:48:41;;;;;;;7.93;5.40;;;18.50;99.80;;;;;;4241602;27;20225;-76
2022/03/29 04:50:44;;;;;;;7.78;5.43;;;18.50;99.90;;;;;;4242165;27;20221;-75
2022/03/29 04:52:47;;;;;;;7.38;5.32;;;18.50;99.80;;;;;;4242096;27;20302;-75
2022/03/29 04:54:52;;;;;;;11.63;6.10;;;18.50;99.80;;;;;;4239818;27;20221;-75
2022/03/29 04:56:55;;;;;;;8.40;5.63;;;18.50;99.80;;;;;;4241264;27;20216;-75
2022/03/29 04:58:57;;;;;;;9.40;5.85;;;18.50;99.80;;;;;;4242479;27;20221;-75
2022/03/29 05:01:00;;;;;;;7.57;5.60;;;18.50;99.90;;;;;;4242671;27;20267;-73
2022/03/29 05:03:03;;;;;;;9.02;5.13;;;18.50;99.90;;;;;;4242572;27;20258;-73
2022/03/29 05:05:06;;;;;;;9.18;5.65;;;18.50;99.80;;;;;;4242902;27;20220;-74
2022/03/29 05:07:08;;;;;;;7.30;5.43;;;18.50;99.90;;;;;;4242696;27;20645;-75
2022/03/29 05:09:10;;;;;;;8.00;5.47;;;18.50;99.90;;;;;;4242606;27;20733;-75
2022/03/29 05:11:14;;;;;;;8.63;5.68;;;18.50;99.90;;;;;;4242058;27;20209;-75
2022/03/29 05:13:17;;;;;;;10.60;6.05;;;18.50;99.90;;;;;;4240877;27;20277;-75
2022/03/29 05:15:21;;;;;;;7.22;5.22;;;18.50;99.90;;;;;;4242388;27;20262;-75
2022/03/29 05:17:23;;;;;;;7.97;5.55;;;18.50;99.90;;;;;;4239736;27;20741;-75
2022/03/29 05:19:25;;;;;;;9.18;5.40;;;18.50;99.90;;;;;;4242148;28;20213;-75
2022/03/29 05:21:30;;;;;;;7.43;5.25;;;18.50;99.90;;;;;;4242138;28;20246;-75
2022/03/29 05:23:32;;;;;;;7.70;4.93;;;18.50;99.80;;;;;;4242019;28;20209;-75
2022/03/29 05:25:35;;;;;;;7.10;4.90;;;18.50;99.80;;;;;;4241791;28;20299;-75
2022/03/29 05:27:39;;;;;;;9.85;5.30;;;18.50;99.80;;;;;;4242210;28;20270;-75
2022/03/29 05:29:41;;;;;;;9.65;5.32;;;18.50;99.80;;;;;;4239201;28;20209;-74
2022/03/29 05:31:44;;;;;;;8.00;5.40;;;18.50;99.80;;;;;;4241919;28;20282;-74
2022/03/29 05:33:46;;;;;;;10.48;5.75;;;18.50;99.80;;;;;;4241064;28;20269;-75
2022/03/29 05:35:48;;;;;;;8.93;5.13;;;18.50;99.80;;;;;;4242392;28;20213;-75
2022/03/29 05:37:50;;;;;;;8.45;4.82;;;18.50;99.80;;;;;;4241864;28;20261;-75
2022/03/29 05:39:53;;;;;;;8.43;5.18;;;18.50;99.70;;;;;;4241785;28;20209;-75
2022/03/29 05:41:55;;;;;;;8.52;5.47;;;18.50;99.90;;;;;;4241706;28;20547;-75
2022/03/29 05:43:59;;;;;;;7.88;4.88;;;18.50;99.70;;;;;;4241713;28;20264;-75
2022/03/29 05:50:41;;;;;;;9.70;5.50;;;18.50;99.70;;;;;;4242161;27;20761;-75
2022/03/29 05:52:43;;;;;;;8.02;5.10;;;18.50;99.70;;;;;;4243020;27;20272;-75
2022/03/29 05:54:46;;;;;;;8.57;5.22;;;18.50;99.70;;;;;;4245329;27;20317;-75
2022/03/29 05:56:49;;;;;;;8.60;5.30;;;18.50;99.70;;;;;;4244699;27;20220;-74
2022/03/29 05:58:52;;;;;;;9.23;5.18;;;18.50;99.70;;;;;;4244952;27;20258;-75
2022/03/29 06:00:55;;;;;;;9.90;5.38;;;18.50;99.70;;;;;;4244867;27;20217;-74
2022/03/29 06:02:58;;;;;;;9.40;5.18;;;18.50;99.70;;;;;;4243345;27;20212;-74
2022/03/29 06:05:00;;;;;;;9.25;5.13;;;18.50;99.70;;;;;;4244144;27;20278;-74
2022/03/29 06:07:04;;;;;;;7.95;4.90;;;18.60;99.70;;;;;;4245329;27;20669;-74
2022/03/29 06:09:07;;;;;;;7.00;5.05;;;18.60;99.70;;;;;;4245600;27;20262;-75
2022/03/29 06:11:10;;;;;;;8.93;5.60;;;18.50;99.70;;;;;;4245432;27;20217;-75
2022/03/29 06:13:14;;;;;;;8.35;4.68;;;18.50;99.70;;;;;;4244187;27;20229;-75
2022/03/29 06:15:17;;;;;;;10.38;5.47;;;18.50;99.70;;;;;;4241061;27;20262;-74
2022/03/29 06:17:20;;;;;;;8.40;5.40;;;18.50;99.70;;;;;;4243441;27;20673;-78
2022/03/29 06:19:23;;;;;;;8.80;5.25;;;18.60;99.70;;;;;;4243311;27;20210;-74
2022/03/29 06:21:25;;;;;;;8.95;5.25;;;18.50;99.70;;;;;;4236750;27;20254;-74
2022/03/29 06:23:28;;;;;;;7.72;5.05;;;18.50;99.70;;;;;;4243914;27;20266;-74
2022/03/29 06:25:32;;;;;;;9.63;5.10;;;18.60;99.80;;;;;;4244359;27;20262;-75
2022/03/29 06:27:34;;;;;;;9.10;5.22;;;18.60;99.80;;;;;;4244578;27;20286;-75
2022/03/29 06:29:36;;;;;;;8.48;5.57;;;18.60;99.80;;;;;;4244340;27;20217;-75
2022/03/29 06:31:39;;;;;;;10.13;5.18;;;18.60;99.90;;;;;;4243846;27;20233;-75
2022/03/29 06:33:43;;;;;;;8.63;4.60;;;18.60;99.80;;;;;;4243918;27;20321;-74
2022/03/29 06:35:45;;;;;;;6.95;4.80;;;18.60;99.80;;;;;;4242651;27;20225;-74
2022/03/29 06:37:48;;;;;;;7.30;5.13;;;18.60;99.80;;;;;;4242982;27;20302;-74
2022/03/29 06:39:51;;;;;;;8.73;4.97;;;18.60;99.90;;;;;;4242384;27;20479;-75
2022/03/29 06:41:55;;;;;;;9.48;5.28;;;18.60;99.80;;;;;;4244180;27;20213;-75
2022/03/29 06:43:58;;;;;;;8.23;5.10;;;18.60;99.80;;;;;;4244357;27;20508;-75
2022/03/29 06:46:01;;;;;;;6.45;4.07;;;18.60;99.80;;;;;;4244286;27;20217;-75
2022/03/29 06:48:04;;;;;;;26.50;12.05;;;18.60;99.80;;;;;;4244050;27;20208;-74
2022/03/29 06:50:10;;;;;;;29.90;14.63;;;18.40;99.00;;;;;;4239856;27;20262;-74
2022/03/29 06:52:12;;;;;;;34.63;16.08;;;17.80;99.00;;;;;;4243310;27;20262;-75
2022/03/29 06:54:15;;;;;;;32.35;16.85;;;17.30;99.50;;;;;;4243457;27;20693;-74
2022/03/29 06:56:18;;;;;;;34.83;16.17;;;17.00;99.90;;;;;;4240830;27;20683;-74
2022/03/29 06:58:20;;;;;;;29.13;15.27;;;17.10;99.90;;;;;;4242886;27;20221;-76
2022/03/29 07:00:23;;;;;;;20.98;9.93;;;17.40;99.90;;;;;;4240440;27;20251;-75
2022/03/29 07:02:26;;;;;;;17.02;9.68;;;17.70;99.90;;;;;;4242326;27;20649;-75
2022/03/29 07:04:28;;;;;;;19.27;10.43;;;18.00;99.90;;;;;;4242093;27;20202;-77
2022/03/29 07:06:32;;;;;;;18.08;8.13;;;18.20;99.90;;;;;;4241530;27;20205;-76
2022/03/29 07:08:34;;;;;;;17.17;8.75;;;18.30;99.90;;;;;;4240453;27;20225;-76
2022/03/29 07:13:02;;;;;;;18.20;8.02;;;18.50;99.90;;;;;;4242591;27;20193;-77
2022/03/29 07:15:05;;;;;;;15.85;7.53;;;18.60;99.90;;;;;;4243792;27;20257;-77
2022/03/29 07:17:11;;;;;;;15.70;7.60;;;18.60;99.80;;;;;;4238978;27;20217;-76
2022/03/29 07:19:13;;;;;;;16.10;8.20;;;18.70;99.80;;;;;;4240206;27;20817;-77
2022/03/29 07:21:16;;;;;;;15.43;7.75;;;18.80;99.90;;;;;;4237118;27;20217;-77
2022/03/29 07:23:19;;;;;;;15.07;7.60;;;18.80;99.90;;;;;;4241048;27;20217;-76
2022/03/29 07:25:23;;;;;;;12.35;7.00;;;18.80;99.90;;;;;;4241866;27;20219;-78
2022/03/29 07:27:25;;;;;;;15.20;7.38;;;18.90;99.90;;;;;;4241126;27;20214;-78
2022/03/29 07:29:28;;;;;;;13.23;7.15;;;18.90;99.90;;;;;;4239400;27;20217;-77
2022/03/29 07:31:30;;;;;;;13.65;7.28;;;19.00;99.90;;;;;;4230402;27;20277;-76
2022/03/29 07:33:33;;;;;;;13.40;6.78;;;19.00;99.90;;;;;;4242568;27;20663;-76
2022/03/29 07:35:35;;;;;;;14.45;6.93;;;19.10;99.80;;;;;;4241691;27;20221;-77
2022/03/29 07:37:38;;;;;;;15.07;6.95;;;19.10;99.90;;;;;;4239395;27;20262;-77
2022/03/29 07:39:54;;;;;;;15.18;7.07;;;19.10;99.90;;;;;;4237855;27;20221;-76
2022/03/29 07:41:57;;;;;;;10.15;6.53;;;19.20;99.60;;;;;;4241823;27;20217;-75
2022/03/29 07:43:59;;;;;;;13.25;6.70;;;19.20;99.60;;;;;;4235187;27;20565;-76
2022/03/29 07:46:02;;;;;;;12.30;6.20;;;19.20;99.80;;;;;;4238826;27;20247;-76
2022/03/29 07:48:05;;;;;;;15.63;7.13;;;19.20;99.70;;;;;;4241437;27;20257;-79
2022/03/29 07:50:10;;;;;;;12.88;6.15;;;19.10;99.90;;;;;;4239680;27;20357;-79
2022/03/29 07:52:12;;;;;;;14.40;6.82;;;19.20;99.90;;;;;;4240531;27;20675;-79
2022/03/29 07:54:14;;;;;;;11.40;6.57;;;19.30;99.70;;;;;;4239832;27;20225;-79
2022/03/29 07:56:18;;;;;;;13.85;6.30;;;19.30;99.70;;;;;;4233891;27;20209;-76
2022/03/29 07:58:23;;;;;;;13.60;6.50;;;19.30;99.70;;;;;;4241459;27;20217;-78
2022/03/29 08:00:35;;;;;;;12.13;6.03;;;19.30;99.80;;;;;;4241295;27;20217;-77
2022/03/29 08:02:37;;;;;;;11.63;5.88;;;19.30;99.80;;;;;;4240237;27;20221;-77
2022/03/29 08:04:40;;;;;;;11.85;6.22;;;19.40;99.80;;;;;;4238059;27;20261;-76
2022/03/29 08:06:42;;;;;;;11.45;6.18;;;19.30;99.70;;;;;;4240744;27;20217;-78
2022/03/29 08:08:44;;;;;;;13.57;5.88;;;19.40;99.80;;;;;;4239954;27;20258;-77
2022/03/29 08:10:48;;;;;;;11.00;5.88;;;19.40;99.90;;;;;;4239941;27;20221;-77
2022/03/29 08:12:52;;;;;;;10.88;6.10;;;19.30;99.90;;;;;;4237429;27;20221;-78
2022/03/29 08:14:55;;;;;;;11.27;6.22;;;19.30;99.90;;;;;;4233253;27;20254;-78
2022/03/29 08:16:57;;;;;;;12.13;5.75;;;19.40;99.90;;;;;;4235479;27;20586;-80
2022/03/29 08:19:00;;;;;;;11.50;6.03;;;19.40;99.90;;;;;;4235643;27;20770;-76
2022/03/29 08:21:47;;;;;;;11.73;5.90;;;19.40;99.90;;;;;;4237890;27;20270;-77
2022/03/29 08:23:26;;;;;;;10.48;5.80;;;19.40;99.90;;;;;;4237379;27;20278;-77
2022/03/29 08:25:31;;;;;;;14.43;6.13;;;19.40;99.90;;;;;;4240838;27;20621;-79
2022/03/29 08:27:33;;;;;;;11.30;5.25;;;19.40;99.90;;;;;;4243684;27;20213;-76
2022/03/29 08:29:37;;;;;;;11.57;5.68;;;19.60;99.90;;;;;;4238886;27;20718;-77
2022/03/29 08:31:40;;;;;;;10.45;5.78;;;19.60;99.90;;;;;;4240215;27;20240;-77
2022/03/29 08:33:43;;;;;;;12.45;6.18;;;19.70;99.90;;;;;;4239390;27;20602;-77
2022/03/29 08:35:45;;;;;;;9.77;5.40;;;19.70;99.90;;;;;;4239897;27;20221;-80
2022/03/29 08:37:47;;;;;;;11.50;6.00;;;19.70;99.80;;;;;;4241634;27;20265;-78
2022/03/29 08:39:50;;;;;;;12.27;5.20;;;19.60;99.90;;;;;;4239282;27;20213;-78
2022/03/29 08:42:03;;;;;;;10.63;4.78;;;19.70;99.90;;;;;;4240994;27;20250;-79
2022/03/29 08:44:07;;;;;;;11.73;6.32;;;19.60;99.90;;;;;;4238621;27;20216;-79
2022/03/29 08:46:11;;;;;;;15.93;6.00;;;19.60;99.90;;;;;;4242583;27;20258;-78
2022/03/29 08:48:13;;;;;;;11.48;5.32;;;19.70;99.90;;;;;;4241778;27;20213;-78
2022/03/29 08:50:16;;;;;;;9.93;5.15;;;19.70;99.90;;;;;;4238837;27;20620;-79
2022/03/29 08:52:20;;;;;;;10.50;5.25;;;19.70;99.90;;;;;;4238815;27;20285;-77
2022/03/29 08:54:22;;;;;;;10.43;5.00;;;19.70;99.90;;;;;;4238487;27;20274;-78
2022/03/29 08:56:25;;;;;;;9.35;4.88;;;19.70;99.90;;;;;;4243309;27;20221;-78
2022/03/29 08:58:27;;;;;;;11.20;5.88;;;19.70;99.90;;;;;;4240815;27;20675;-78
2022/03/29 09:00:29;;;;;;;12.13;6.13;;;19.70;99.90;;;;;;4240415;27;20550;-78
2022/03/29 09:02:36;;;;;;;12.48;6.18;;;19.70;99.90;;;;;;4240434;27;20213;-78
2022/03/29 09:04:38;;;;;;;10.85;5.57;;;19.70;99.90;;;;;;4240943;27;20266;-79
2022/03/29 09:07:01;;;;;;;12.40;5.70;;;19.80;99.90;;;;;;4237372;27;20221;-80
2022/03/29 09:09:03;;;;;;;10.13;5.80;;;19.80;99.90;;;;;;4236804;27;20275;-78
2022/03/29 09:11:08;;;;;;;7.03;4.97;;;19.80;99.90;;;;;;4241475;27;20310;-79
2022/03/29 09:13:18;;;;;;;11.65;6.22;;;19.80;99.90;;;;;;4236047;27;20217;-82
2022/03/29 09:15:21;;;;;;;11.43;5.28;;;19.80;99.90;;;;;;4242193;27;20281;-81
2022/03/29 09:17:30;;;;;;;9.70;5.70;;;19.80;99.90;;;;;;4240922;27;20278;-78
2022/03/29 09:19:48;;;;;;;7.20;4.95;;;19.80;99.90;;;;;;4240358;27;20616;-78
2022/03/29 09:21:51;;;;;;;13.02;5.78;;;19.80;99.90;;;;;;4239507;27;20253;-78
2022/03/29 09:24:07;;;;;;;10.45;4.85;;;19.80;99.90;;;;;;4239523;28;20217;-79
2022/03/29 09:26:26;;;;;;;7.60;4.38;;;19.80;99.90;;;;;;4241809;27;21058;-78
2022/03/29 09:28:34;;;;;;;9.07;5.68;;;19.90;99.90;;;;;;4242311;27;20208;-81
2022/03/29 09:30:42;;;;;;;11.60;4.80;;;20.00;99.90;;;;;;4245916;27;20212;-78
2022/03/29 09:32:52;;;;;;;11.57;5.75;;;20.00;99.90;;;;;;4243337;27;20239;-78
2022/03/29 09:35:08;;;;;;;9.63;5.15;;;20.00;99.90;;;;;;4248085;27;20281;-78
2022/03/29 09:37:10;;;;;;;11.23;4.88;;;20.00;99.90;;;;;;4244386;27;20209;-79
2022/03/29 09:39:34;;;;;;;12.80;5.18;;;20.00;99.90;;;;;;4241157;27;20209;-79
2022/03/29 09:41:37;;;;;;;10.20;4.82;;;20.00;99.90;;;;;;4241212;27;20238;-77
2022/03/29 09:43:40;;;;;;;7.82;4.47;;;20.00;99.90;;;;;;4234822;27;20274;-77
2022/03/29 09:45:45;;;;;;;10.45;5.40;;;20.00;99.90;;;;;;4244345;27;20216;-77
2022/03/29 09:47:49;;;;;;;9.63;5.13;;;20.00;99.90;;;;;;4243740;27;20224;-77
2022/03/29 09:49:54;;;;;;;12.32;5.50;;;20.00;99.90;;;;;;4238666;27;20213;-77
2022/03/29 09:52:11;;;;;;;9.70;5.15;;;20.00;99.90;;;;;;4244052;27;20217;-82
2022/03/29 09:54:13;;;;;;;11.02;6.70;;;20.10;99.90;;;;;;4244743;27;20213;-79
2022/03/29 09:56:19;;;;;;;9.43;5.00;;;20.10;99.90;;;;;;4243988;27;21095;-78
2022/03/29 09:58:21;;;;;;;9.05;4.57;;;20.10;99.90;;;;;;4243826;27;20281;-78
2022/03/29 10:00:35;;;;;;;6.25;4.10;;;20.10;99.90;;;;;;4242352;27;20217;-81
2022/03/29 10:02:40;;;;;;;8.48;4.45;;;20.00;99.90;;;;;;4240944;27;20213;-77
2022/03/29 10:04:44;;;;;;;9.15;5.03;;;20.00;99.90;;;;;;4237381;27;20306;-76
2022/03/29 10:06:49;;;;;;;8.30;5.18;;;20.10;99.90;;;;;;4239048;27;20270;-76
2022/03/29 10:11:19;;;;;;;12.93;6.90;;;20.10;99.90;;;;;;4243000;27;20197;-78
2022/03/29 10:13:23;;;;;;;9.98;5.90;;;20.10;99.90;;;;;;4241410;27;20260;-77
2022/03/29 10:15:26;;;;;;;10.70;6.30;;;20.10;99.90;;;;;;4244372;27;20241;-77
2022/03/29 10:17:32;;;;;;;12.85;6.25;;;20.10;99.90;;;;;;4239684;27;20213;-77
2022/03/29 10:19:36;;;;;;;12.98;6.50;;;20.10;99.90;;;;;;4238329;27;20209;-77
2022/03/29 10:21:39;;;;;;;9.75;5.70;;;20.00;99.90;;;;;;4242414;27;20276;-78
2022/03/29 10:23:44;;;;;;;8.95;5.13;;;20.10;99.90;;;;;;4239550;27;20209;-78
2022/03/29 10:25:48;;;;;;;9.95;4.40;;;20.10;99.90;;;;;;4233298;27;20262;-78
2022/03/29 10:27:51;;;;;;;8.10;4.53;;;19.90;99.90;;;;;;4233534;27;20217;-77
2022/03/29 10:29:54;;;;;;;10.10;5.25;;;20.00;99.90;;;;;;4237830;27;20660;-77
2022/03/29 10:32:01;;;;;;;10.68;6.35;;;20.10;99.90;;;;;;4242360;27;20766;-76
2022/03/29 10:34:21;;;;;;;10.18;6.15;;;20.10;99.90;;;;;;4238063;27;20265;-76
2022/03/29 10:36:23;;;;;;;7.95;4.18;;;20.10;99.90;;;;;;4235442;27;20225;-77
2022/03/29 10:38:59;;;;;;;8.70;4.47;;;20.10;99.90;;;;;;4235580;27;20214;-79
2022/03/29 10:41:02;;;;;;;7.45;4.55;;;20.00;99.90;;;;;;4241483;27;21106;-77
2022/03/29 10:43:28;;;;;;;11.23;4.72;;;20.10;99.90;;;;;;4238298;27;20265;-77
2022/03/29 10:45:30;;;;;;;6.85;4.38;;;20.10;99.90;;;;;;4241725;27;20629;-77
2022/03/29 10:47:34;;;;;;;7.85;4.95;;;20.10;99.90;;;;;;4245312;27;20242;-76
2022/03/29 10:49:49;;;;;;;8.88;5.30;;;20.10;99.90;;;;;;4242628;27;20617;-77
2022/03/29 10:51:53;;;;;;;8.35;4.30;;;20.20;99.90;;;;;;4240020;27;20273;-77